sensor_id;sensor_type;location;lat;lon;timestamp;P1;durP1;ratioP1;P2;durP2;ratioP2
64140;SDS011;50436;50.618;7.932;2023-11-21T00:00:00;0.20;;;0.20;;
64140;SDS011;50436;50.618;7.932;2023-11-21T00:02:46;0.13;;;0.13;;
64140;SDS011;50436;50.618;7.932;2023-11-21T00:05:31;0.20;;;0.20;;
64140;SDS011;50436;50.618;7.932;2023-11-21T00:08:17;0.20;;;0.20;;
64140;SDS011;50436;50.618;7.932;2023-11-21T00:11:03;0.10;;;0.10;;
64140;SDS011;50436;50.618;7.932;2023-11-21T00:13:51;0.20;;;0.20;;
64140;SDS011;50436;50.618;7.932;2023-11-21T00:16:36;0.10;;;0.10;;
64140;SDS011;50436;50.618;7.932;2023-11-21T00:19:22;0.17;;;0.17;;
64140;SDS011;50436;50.618;7.932;2023-11-21T00:22:08;0.10;;;0.10;;
64140;SDS011;50436;50.618;7.932;2023-11-21T00:24:54;0.10;;;0.10;;
64140;SDS011;50436;50.618;7.932;2023-11-21T00:27:40;0.20;;;0.20;;
64140;SDS011;50436;50.618;7.932;2023-11-21T00:30:26;0.10;;;0.10;;
64140;SDS011;50436;50.618;7.932;2023-11-21T00:33:11;0.20;;;0.20;;
64140;SDS011;50436;50.618;7.932;2023-11-21T00:35:57;0.10;;;0.10;;
64140;SDS011;50436;50.618;7.932;2023-11-21T00:38:43;0.10;;;0.10;;
64140;SDS011;50436;50.618;7.932;2023-11-21T00:41:28;0.10;;;0.10;;
64140;SDS011;50436;50.618;7.932;2023-11-21T00:44:14;0.10;;;0.10;;
64140;SDS011;50436;50.618;7.932;2023-11-21T00:47:01;0.10;;;0.10;;
64140;SDS011;50436;50.618;7.932;2023-11-21T00:49:48;0.10;;;0.10;;
64140;SDS011;50436;50.618;7.932;2023-11-21T00:52:34;0.10;;;0.10;;
64140;SDS011;50436;50.618;7.932;2023-11-21T00:55:21;0.20;;;0.20;;
64140;SDS011;50436;50.618;7.932;2023-11-21T00:58:07;0.10;;;0.10;;
64140;SDS011;50436;50.618;7.932;2023-11-21T01:00:53;0.13;;;0.13;;
64140;SDS011;50436;50.618;7.932;2023-11-21T01:03:38;0.17;;;0.17;;
64140;SDS011;50436;50.618;7.932;2023-11-21T01:06:24;0.20;;;0.20;;
64140;SDS011;50436;50.618;7.932;2023-11-21T01:09:10;0.20;;;0.20;;
64140;SDS011;50436;50.618;7.932;2023-11-21T01:11:56;0.20;;;0.20;;
64140;SDS011;50436;50.618;7.932;2023-11-21T01:14:42;0.20;;;0.20;;
64140;SDS011;50436;50.618;7.932;2023-11-21T01:17:28;0.10;;;0.10;;
64140;SDS011;50436;50.618;7.932;2023-11-21T01:20:13;0.10;;;0.10;;
64140;SDS011;50436;50.618;7.932;2023-11-21T01:22:59;0.10;;;0.10;;
64140;SDS011;50436;50.618;7.932;2023-11-21T01:25:46;0.20;;;0.20;;
64140;SDS011;50436;50.618;7.932;2023-11-21T01:28:32;0.20;;;0.20;;
64140;SDS011;50436;50.618;7.932;2023-11-21T01:31:18;0.10;;;0.10;;
64140;SDS011;50436;50.618;7.932;2023-11-21T01:34:05;0.20;;;0.20;;
64140;SDS011;50436;50.618;7.932;2023-11-21T01:36:51;0.10;;;0.10;;
64140;SDS011;50436;50.618;7.932;2023-11-21T01:39:37;0.20;;;0.20;;
64140;SDS011;50436;50.618;7.932;2023-11-21T01:42:24;0.20;;;0.20;;
64140;SDS011;50436;50.618;7.932;2023-11-21T01:45:10;0.10;;;0.10;;
64140;SDS011;50436;50.618;7.932;2023-11-21T01:47:58;0.20;;;0.20;;
64140;SDS011;50436;50.618;7.932;2023-11-21T01:50:45;0.10;;;0.10;;
64140;SDS011;50436;50.618;7.932;2023-11-21T01:53:30;0.20;;;0.20;;
64140;SDS011;50436;50.618;7.932;2023-11-21T01:56:16;0.10;;;0.10;;
64140;SDS011;50436;50.618;7.932;2023-11-21T01:59:02;0.20;;;0.20;;
64140;SDS011;50436;50.618;7.932;2023-11-21T02:01:48;0.73;;;0.50;;
64140;SDS011;50436;50.618;7.932;2023-11-21T02:04:35;0.60;;;0.40;;
64140;SDS011;50436;50.618;7.932;2023-11-21T02:07:24;0.35;;;0.30;;
64140;SDS011;50436;50.618;7.932;2023-11-21T02:10:10;0.50;;;0.38;;
64140;SDS011;50436;50.618;7.932;2023-11-21T02:13:00;0.20;;;0.20;;
64140;SDS011;50436;50.618;7.932;2023-11-21T02:15:48;0.20;;;0.20;;
64140;SDS011;50436;50.618;7.932;2023-11-21T02:18:39;0.20;;;0.20;;
64140;SDS011;50436;50.618;7.932;2023-11-21T02:21:25;0.20;;;0.20;;
64140;SDS011;50436;50.618;7.932;2023-11-21T02:24:11;0.20;;;0.20;;
64140;SDS011;50436;50.618;7.932;2023-11-21T02:26:57;0.15;;;0.15;;
64140;SDS011;50436;50.618;7.932;2023-11-21T02:29:42;0.20;;;0.20;;
64140;SDS011;50436;50.618;7.932;2023-11-21T02:32:28;0.10;;;0.10;;
64140;SDS011;50436;50.618;7.932;2023-11-21T02:35:17;0.30;;;0.30;;
64140;SDS011;50436;50.618;7.932;2023-11-21T02:38:03;0.30;;;0.30;;
64140;SDS011;50436;50.618;7.932;2023-11-21T02:40:49;0.73;;;0.50;;
64140;SDS011;50436;50.618;7.932;2023-11-21T02:43:35;0.90;;;0.50;;
64140;SDS011;50436;50.618;7.932;2023-11-21T02:46:21;1.27;;;0.68;;
64140;SDS011;50436;50.618;7.932;2023-11-21T02:49:07;1.35;;;0.70;;
64140;SDS011;50436;50.618;7.932;2023-11-21T02:51:55;0.30;;;0.30;;
64140;SDS011;50436;50.618;7.932;2023-11-21T02:54:41;0.90;;;0.47;;
64140;SDS011;50436;50.618;7.932;2023-11-21T02:57:26;1.02;;;0.60;;
64140;SDS011;50436;50.618;7.932;2023-11-21T03:00:12;0.57;;;0.40;;
64140;SDS011;50436;50.618;7.932;2023-11-21T03:03:01;1.17;;;0.70;;
64140;SDS011;50436;50.618;7.932;2023-11-21T03:05:46;0.47;;;0.35;;
64140;SDS011;50436;50.618;7.932;2023-11-21T03:08:32;0.98;;;0.50;;
64140;SDS011;50436;50.618;7.932;2023-11-21T03:11:18;0.75;;;0.43;;
64140;SDS011;50436;50.618;7.932;2023-11-21T03:14:04;1.52;;;0.82;;
64140;SDS011;50436;50.618;7.932;2023-11-21T03:16:50;1.77;;;0.98;;
64140;SDS011;50436;50.618;7.932;2023-11-21T03:19:36;1.10;;;0.60;;
64140;SDS011;50436;50.618;7.932;2023-11-21T03:22:21;1.50;;;0.80;;
64140;SDS011;50436;50.618;7.932;2023-11-21T03:25:07;1.40;;;0.80;;
64140;SDS011;50436;50.618;7.932;2023-11-21T03:27:56;1.70;;;0.90;;
64140;SDS011;50436;50.618;7.932;2023-11-21T03:30:41;1.90;;;1.23;;
64140;SDS011;50436;50.618;7.932;2023-11-21T03:33:27;1.15;;;0.60;;
64140;SDS011;50436;50.618;7.932;2023-11-21T03:36:13;1.30;;;0.80;;
64140;SDS011;50436;50.618;7.932;2023-11-21T03:39:00;1.30;;;0.75;;
64140;SDS011;50436;50.618;7.932;2023-11-21T03:41:46;1.50;;;0.80;;
64140;SDS011;50436;50.618;7.932;2023-11-21T03:44:31;1.60;;;0.90;;
64140;SDS011;50436;50.618;7.932;2023-11-21T03:47:17;1.48;;;0.80;;
64140;SDS011;50436;50.618;7.932;2023-11-21T03:50:05;1.48;;;0.80;;
64140;SDS011;50436;50.618;7.932;2023-11-21T03:52:51;1.40;;;0.80;;
64140;SDS011;50436;50.618;7.932;2023-11-21T03:55:36;1.30;;;0.60;;
64140;SDS011;50436;50.618;7.932;2023-11-21T03:58:23;0.82;;;0.43;;
64140;SDS011;50436;50.618;7.932;2023-11-21T04:01:08;1.13;;;0.60;;
64140;SDS011;50436;50.618;7.932;2023-11-21T04:03:54;0.88;;;0.50;;
64140;SDS011;50436;50.618;7.932;2023-11-21T04:06:42;1.45;;;0.80;;
64140;SDS011;50436;50.618;7.932;2023-11-21T04:09:28;1.90;;;1.27;;
64140;SDS011;50436;50.618;7.932;2023-11-21T04:12:14;1.38;;;0.77;;
64140;SDS011;50436;50.618;7.932;2023-11-21T04:14:59;1.33;;;0.70;;
64140;SDS011;50436;50.618;7.932;2023-11-21T04:17:45;1.40;;;0.80;;
64140;SDS011;50436;50.618;7.932;2023-11-21T04:20:31;1.70;;;1.10;;
64140;SDS011;50436;50.618;7.932;2023-11-21T04:23:18;1.60;;;0.85;;
64140;SDS011;50436;50.618;7.932;2023-11-21T04:26:04;1.30;;;0.75;;
64140;SDS011;50436;50.618;7.932;2023-11-21T04:28:49;1.60;;;1.00;;
64140;SDS011;50436;50.618;7.932;2023-11-21T04:31:35;1.73;;;1.00;;
64140;SDS011;50436;50.618;7.932;2023-11-21T04:34:21;1.95;;;1.25;;
64140;SDS011;50436;50.618;7.932;2023-11-21T04:37:06;1.10;;;0.60;;
64140;SDS011;50436;50.618;7.932;2023-11-21T04:39:52;0.95;;;0.60;;
64140;SDS011;50436;50.618;7.932;2023-11-21T04:42:38;0.20;;;0.20;;
64140;SDS011;50436;50.618;7.932;2023-11-21T04:45:23;0.60;;;0.40;;
64140;SDS011;50436;50.618;7.932;2023-11-21T04:48:09;0.20;;;0.20;;
64140;SDS011;50436;50.618;7.932;2023-11-21T04:50:55;0.10;;;0.10;;
64140;SDS011;50436;50.618;7.932;2023-11-21T04:53:41;0.10;;;0.10;;
64140;SDS011;50436;50.618;7.932;2023-11-21T04:56:27;0.20;;;0.20;;
64140;SDS011;50436;50.618;7.932;2023-11-21T04:59:12;0.57;;;0.30;;
64140;SDS011;50436;50.618;7.932;2023-11-21T05:01:58;0.55;;;0.40;;
64140;SDS011;50436;50.618;7.932;2023-11-21T05:04:45;0.50;;;0.30;;
64140;SDS011;50436;50.618;7.932;2023-11-21T05:07:32;0.20;;;0.20;;
64140;SDS011;50436;50.618;7.932;2023-11-21T05:10:17;0.68;;;0.40;;
64140;SDS011;50436;50.618;7.932;2023-11-21T05:13:03;0.95;;;0.50;;
64140;SDS011;50436;50.618;7.932;2023-11-21T05:15:55;0.85;;;0.52;;
64140;SDS011;50436;50.618;7.932;2023-11-21T05:18:43;1.23;;;0.70;;
64140;SDS011;50436;50.618;7.932;2023-11-21T05:21:29;1.33;;;0.82;;
64140;SDS011;50436;50.618;7.932;2023-11-21T05:24:18;0.82;;;0.50;;
64140;SDS011;50436;50.618;7.932;2023-11-21T05:27:04;1.13;;;0.60;;
64140;SDS011;50436;50.618;7.932;2023-11-21T05:29:49;0.90;;;0.50;;
64140;SDS011;50436;50.618;7.932;2023-11-21T05:32:35;1.23;;;0.60;;
64140;SDS011;50436;50.618;7.932;2023-11-21T05:35:21;0.20;;;0.20;;
64140;SDS011;50436;50.618;7.932;2023-11-21T05:38:06;0.40;;;0.30;;
64140;SDS011;50436;50.618;7.932;2023-11-21T05:40:52;0.20;;;0.20;;
64140;SDS011;50436;50.618;7.932;2023-11-21T05:43:38;0.30;;;0.30;;
64140;SDS011;50436;50.618;7.932;2023-11-21T05:46:24;0.32;;;0.30;;
64140;SDS011;50436;50.618;7.932;2023-11-21T05:49:09;0.70;;;0.40;;
64140;SDS011;50436;50.618;7.932;2023-11-21T05:51:55;1.00;;;0.60;;
64140;SDS011;50436;50.618;7.932;2023-11-21T05:54:41;0.93;;;0.50;;
64140;SDS011;50436;50.618;7.932;2023-11-21T05:57:27;1.55;;;0.90;;
64140;SDS011;50436;50.618;7.932;2023-11-21T06:00:13;0.75;;;0.52;;
64140;SDS011;50436;50.618;7.932;2023-11-21T06:03:10;0.95;;;0.57;;
64140;SDS011;50436;50.618;7.932;2023-11-21T06:05:56;0.20;;;0.20;;
64140;SDS011;50436;50.618;7.932;2023-11-21T06:08:42;0.20;;;0.20;;
64140;SDS011;50436;50.618;7.932;2023-11-21T06:11:28;0.30;;;0.30;;
64140;SDS011;50436;50.618;7.932;2023-11-21T06:14:14;0.47;;;0.30;;
64140;SDS011;50436;50.618;7.932;2023-11-21T06:17:03;0.68;;;0.40;;
64140;SDS011;50436;50.618;7.932;2023-11-21T06:19:49;1.10;;;0.57;;
64140;SDS011;50436;50.618;7.932;2023-11-21T06:22:36;0.98;;;0.50;;
64140;SDS011;50436;50.618;7.932;2023-11-21T06:25:21;0.90;;;0.60;;
64140;SDS011;50436;50.618;7.932;2023-11-21T06:28:07;0.90;;;0.50;;
64140;SDS011;50436;50.618;7.932;2023-11-21T06:30:53;0.28;;;0.28;;
64140;SDS011;50436;50.618;7.932;2023-11-21T06:33:38;0.20;;;0.20;;
64140;SDS011;50436;50.618;7.932;2023-11-21T06:36:24;0.60;;;0.40;;
64140;SDS011;50436;50.618;7.932;2023-11-21T06:39:10;0.88;;;0.60;;
64140;SDS011;50436;50.618;7.932;2023-11-21T06:41:56;1.08;;;0.60;;
64140;SDS011;50436;50.618;7.932;2023-11-21T06:44:41;1.27;;;0.90;;
64140;SDS011;50436;50.618;7.932;2023-11-21T06:47:27;0.52;;;0.40;;
64140;SDS011;50436;50.618;7.932;2023-11-21T06:50:15;1.25;;;0.70;;
64140;SDS011;50436;50.618;7.932;2023-11-21T06:53:00;1.40;;;0.80;;
64140;SDS011;50436;50.618;7.932;2023-11-21T06:55:49;1.45;;;0.80;;
64140;SDS011;50436;50.618;7.932;2023-11-21T06:58:35;1.10;;;0.63;;
64140;SDS011;50436;50.618;7.932;2023-11-21T07:01:20;1.05;;;0.65;;
64140;SDS011;50436;50.618;7.932;2023-11-21T07:04:06;0.35;;;0.32;;
64140;SDS011;50436;50.618;7.932;2023-11-21T07:06:53;1.40;;;0.82;;
64140;SDS011;50436;50.618;7.932;2023-11-21T07:09:39;0.70;;;0.45;;
64140;SDS011;50436;50.618;7.932;2023-11-21T07:12:25;0.75;;;0.50;;
64140;SDS011;50436;50.618;7.932;2023-11-21T07:15:11;1.00;;;0.50;;
64140;SDS011;50436;50.618;7.932;2023-11-21T07:17:57;0.63;;;0.40;;
64140;SDS011;50436;50.618;7.932;2023-11-21T07:20:42;0.95;;;0.60;;
64140;SDS011;50436;50.618;7.932;2023-11-21T07:23:28;1.17;;;0.60;;
64140;SDS011;50436;50.618;7.932;2023-11-21T07:26:14;0.65;;;0.40;;
64140;SDS011;50436;50.618;7.932;2023-11-21T07:29:00;1.00;;;0.60;;
64140;SDS011;50436;50.618;7.932;2023-11-21T07:31:46;0.35;;;0.28;;
64140;SDS011;50436;50.618;7.932;2023-11-21T07:34:32;0.70;;;0.45;;
64140;SDS011;50436;50.618;7.932;2023-11-21T07:37:17;0.30;;;0.28;;
64140;SDS011;50436;50.618;7.932;2023-11-21T07:40:05;0.68;;;0.47;;
64140;SDS011;50436;50.618;7.932;2023-11-21T07:42:53;0.20;;;0.20;;
64140;SDS011;50436;50.618;7.932;2023-11-21T07:45:42;0.40;;;0.30;;
64140;SDS011;50436;50.618;7.932;2023-11-21T07:48:28;0.57;;;0.40;;
64140;SDS011;50436;50.618;7.932;2023-11-21T07:51:14;0.15;;;0.15;;
64140;SDS011;50436;50.618;7.932;2023-11-21T07:54:00;0.20;;;0.20;;
64140;SDS011;50436;50.618;7.932;2023-11-21T07:56:46;0.38;;;0.30;;
64140;SDS011;50436;50.618;7.932;2023-11-21T07:59:31;0.25;;;0.25;;
64140;SDS011;50436;50.618;7.932;2023-11-21T08:02:17;0.20;;;0.20;;
64140;SDS011;50436;50.618;7.932;2023-11-21T08:05:03;0.20;;;0.20;;
64140;SDS011;50436;50.618;7.932;2023-11-21T08:07:49;0.20;;;0.20;;
64140;SDS011;50436;50.618;7.932;2023-11-21T08:10:35;0.20;;;0.20;;
64140;SDS011;50436;50.618;7.932;2023-11-21T08:13:24;0.30;;;0.30;;
64140;SDS011;50436;50.618;7.932;2023-11-21T08:16:10;0.20;;;0.20;;
64140;SDS011;50436;50.618;7.932;2023-11-21T08:18:56;0.20;;;0.20;;
64140;SDS011;50436;50.618;7.932;2023-11-21T08:21:42;0.17;;;0.17;;
64140;SDS011;50436;50.618;7.932;2023-11-21T08:24:28;0.30;;;0.30;;
64140;SDS011;50436;50.618;7.932;2023-11-21T08:27:13;0.20;;;0.20;;
64140;SDS011;50436;50.618;7.932;2023-11-21T08:30:02;0.38;;;0.30;;
64140;SDS011;50436;50.618;7.932;2023-11-21T08:32:48;0.20;;;0.20;;
64140;SDS011;50436;50.618;7.932;2023-11-21T08:35:34;0.20;;;0.20;;
64140;SDS011;50436;50.618;7.932;2023-11-21T08:38:20;0.20;;;0.20;;
64140;SDS011;50436;50.618;7.932;2023-11-21T08:41:06;0.10;;;0.10;;
64140;SDS011;50436;50.618;7.932;2023-11-21T08:43:54;0.20;;;0.20;;
64140;SDS011;50436;50.618;7.932;2023-11-21T08:46:40;0.20;;;0.20;;
64140;SDS011;50436;50.618;7.932;2023-11-21T08:49:27;0.20;;;0.20;;
64140;SDS011;50436;50.618;7.932;2023-11-21T08:52:14;0.10;;;0.10;;
64140;SDS011;50436;50.618;7.932;2023-11-21T08:55:00;0.13;;;0.13;;
64140;SDS011;50436;50.618;7.932;2023-11-21T08:57:53;0.20;;;0.20;;
64140;SDS011;50436;50.618;7.932;2023-11-21T09:00:39;0.20;;;0.20;;
64140;SDS011;50436;50.618;7.932;2023-11-21T09:03:25;0.20;;;0.20;;
64140;SDS011;50436;50.618;7.932;2023-11-21T09:06:11;0.15;;;0.15;;
64140;SDS011;50436;50.618;7.932;2023-11-21T09:08:57;0.20;;;0.20;;
64140;SDS011;50436;50.618;7.932;2023-11-21T09:11:43;0.20;;;0.20;;
64140;SDS011;50436;50.618;7.932;2023-11-21T09:14:31;0.20;;;0.20;;
64140;SDS011;50436;50.618;7.932;2023-11-21T09:17:16;0.20;;;0.20;;
64140;SDS011;50436;50.618;7.932;2023-11-21T09:20:02;0.20;;;0.20;;
64140;SDS011;50436;50.618;7.932;2023-11-21T09:22:51;0.10;;;0.10;;
64140;SDS011;50436;50.618;7.932;2023-11-21T09:25:36;0.15;;;0.15;;
64140;SDS011;50436;50.618;7.932;2023-11-21T09:28:22;0.20;;;0.20;;
64140;SDS011;50436;50.618;7.932;2023-11-21T09:31:08;0.10;;;0.10;;
64140;SDS011;50436;50.618;7.932;2023-11-21T09:33:54;0.10;;;0.10;;
64140;SDS011;50436;50.618;7.932;2023-11-21T09:36:40;0.20;;;0.20;;
64140;SDS011;50436;50.618;7.932;2023-11-21T09:39:26;0.13;;;0.13;;
64140;SDS011;50436;50.618;7.932;2023-11-21T09:42:12;0.20;;;0.20;;
64140;SDS011;50436;50.618;7.932;2023-11-21T09:45:03;0.13;;;0.13;;
64140;SDS011;50436;50.618;7.932;2023-11-21T09:47:52;0.20;;;0.20;;
64140;SDS011;50436;50.618;7.932;2023-11-21T09:50:39;0.20;;;0.20;;
64140;SDS011;50436;50.618;7.932;2023-11-21T09:53:27;0.20;;;0.20;;
64140;SDS011;50436;50.618;7.932;2023-11-21T09:56:15;0.20;;;0.20;;
64140;SDS011;50436;50.618;7.932;2023-11-21T09:59:05;0.20;;;0.20;;
64140;SDS011;50436;50.618;7.932;2023-11-21T10:01:53;0.20;;;0.20;;
64140;SDS011;50436;50.618;7.932;2023-11-21T10:04:44;0.22;;;0.20;;
64140;SDS011;50436;50.618;7.932;2023-11-21T10:07:30;0.20;;;0.20;;
64140;SDS011;50436;50.618;7.932;2023-11-21T10:10:20;0.10;;;0.10;;
64140;SDS011;50436;50.618;7.932;2023-11-21T10:13:07;0.20;;;0.20;;
64140;SDS011;50436;50.618;7.932;2023-11-21T10:15:56;0.10;;;0.10;;
64140;SDS011;50436;50.618;7.932;2023-11-21T10:18:45;0.20;;;0.20;;
64140;SDS011;50436;50.618;7.932;2023-11-21T10:21:34;0.20;;;0.20;;
64140;SDS011;50436;50.618;7.932;2023-11-21T10:24:20;0.20;;;0.20;;
64140;SDS011;50436;50.618;7.932;2023-11-21T10:27:05;0.20;;;0.20;;
64140;SDS011;50436;50.618;7.932;2023-11-21T10:29:51;0.20;;;0.20;;
64140;SDS011;50436;50.618;7.932;2023-11-21T10:32:37;0.10;;;0.10;;
64140;SDS011;50436;50.618;7.932;2023-11-21T10:35:23;0.15;;;0.15;;
64140;SDS011;50436;50.618;7.932;2023-11-21T10:38:09;0.20;;;0.20;;
64140;SDS011;50436;50.618;7.932;2023-11-21T10:40:55;0.20;;;0.20;;
64140;SDS011;50436;50.618;7.932;2023-11-21T10:43:41;0.20;;;0.20;;
64140;SDS011;50436;50.618;7.932;2023-11-21T10:46:29;0.20;;;0.20;;
64140;SDS011;50436;50.618;7.932;2023-11-21T10:49:18;0.20;;;0.20;;
64140;SDS011;50436;50.618;7.932;2023-11-21T10:52:05;0.20;;;0.20;;
64140;SDS011;50436;50.618;7.932;2023-11-21T10:54:50;0.20;;;0.20;;
64140;SDS011;50436;50.618;7.932;2023-11-21T10:57:36;0.20;;;0.20;;
64140;SDS011;50436;50.618;7.932;2023-11-21T11:00:22;0.20;;;0.20;;
64140;SDS011;50436;50.618;7.932;2023-11-21T11:03:09;0.10;;;0.10;;
64140;SDS011;50436;50.618;7.932;2023-11-21T11:06:00;0.10;;;0.10;;
64140;SDS011;50436;50.618;7.932;2023-11-21T11:08:46;0.20;;;0.20;;
64140;SDS011;50436;50.618;7.932;2023-11-21T11:11:34;0.10;;;0.10;;
64140;SDS011;50436;50.618;7.932;2023-11-21T11:14:24;0.20;;;0.20;;
64140;SDS011;50436;50.618;7.932;2023-11-21T11:17:11;0.20;;;0.20;;
64140;SDS011;50436;50.618;7.932;2023-11-21T11:19:58;0.20;;;0.20;;
64140;SDS011;50436;50.618;7.932;2023-11-21T11:28:56;0.10;;;0.10;;
64140;SDS011;50436;50.618;7.932;2023-11-21T11:34:29;0.20;;;0.20;;
64140;SDS011;50436;50.618;7.932;2023-11-21T11:37:18;0.20;;;0.20;;
64140;SDS011;50436;50.618;7.932;2023-11-21T11:40:07;0.20;;;0.20;;
64140;SDS011;50436;50.618;7.932;2023-11-21T11:42:57;0.20;;;0.20;;
64140;SDS011;50436;50.618;7.932;2023-11-21T11:45:44;0.13;;;0.13;;
64140;SDS011;50436;50.618;7.932;2023-11-21T11:48:37;0.20;;;0.20;;
64140;SDS011;50436;50.618;7.932;2023-11-21T11:51:24;0.10;;;0.10;;
64140;SDS011;50436;50.618;7.932;2023-11-21T11:54:10;0.20;;;0.20;;
64140;SDS011;50436;50.618;7.932;2023-11-21T11:56:56;0.30;;;0.30;;
64140;SDS011;50436;50.618;7.932;2023-11-21T12:02:50;0.10;;;0.10;;
64140;SDS011;50436;50.618;7.932;2023-11-21T12:05:36;0.20;;;0.20;;
64140;SDS011;50436;50.618;7.932;2023-11-21T12:08:30;0.20;;;0.20;;
64140;SDS011;50436;50.618;7.932;2023-11-21T12:11:17;0.20;;;0.20;;
64140;SDS011;50436;50.618;7.932;2023-11-21T12:14:03;0.17;;;0.17;;
64140;SDS011;50436;50.618;7.932;2023-11-21T12:16:51;0.20;;;0.20;;
64140;SDS011;50436;50.618;7.932;2023-11-21T12:19:37;0.20;;;0.20;;
64140;SDS011;50436;50.618;7.932;2023-11-21T12:22:23;0.15;;;0.15;;
64140;SDS011;50436;50.618;7.932;2023-11-21T12:25:09;0.20;;;0.20;;
64140;SDS011;50436;50.618;7.932;2023-11-21T12:27:55;0.10;;;0.10;;
64140;SDS011;50436;50.618;7.932;2023-11-21T12:30:41;0.20;;;0.20;;
64140;SDS011;50436;50.618;7.932;2023-11-21T12:33:26;0.20;;;0.20;;
64140;SDS011;50436;50.618;7.932;2023-11-21T12:36:15;0.10;;;0.10;;
64140;SDS011;50436;50.618;7.932;2023-11-21T12:39:02;0.20;;;0.20;;
64140;SDS011;50436;50.618;7.932;2023-11-21T12:41:48;0.13;;;0.13;;
64140;SDS011;50436;50.618;7.932;2023-11-21T12:44:34;0.10;;;0.10;;
64140;SDS011;50436;50.618;7.932;2023-11-21T12:47:20;0.15;;;0.15;;
64140;SDS011;50436;50.618;7.932;2023-11-21T12:50:07;0.20;;;0.20;;
64140;SDS011;50436;50.618;7.932;2023-11-21T12:53:03;0.20;;;0.20;;
64140;SDS011;50436;50.618;7.932;2023-11-21T12:55:52;0.20;;;0.20;;
64140;SDS011;50436;50.618;7.932;2023-11-21T12:58:43;0.10;;;0.10;;
64140;SDS011;50436;50.618;7.932;2023-11-21T13:01:30;0.10;;;0.10;;
64140;SDS011;50436;50.618;7.932;2023-11-21T13:04:17;0.20;;;0.20;;
64140;SDS011;50436;50.618;7.932;2023-11-21T13:07:04;0.10;;;0.10;;
64140;SDS011;50436;50.618;7.932;2023-11-21T13:09:58;0.20;;;0.20;;
64140;SDS011;50436;50.618;7.932;2023-11-21T13:12:44;0.13;;;0.13;;
64140;SDS011;50436;50.618;7.932;2023-11-21T13:15:33;0.17;;;0.17;;
64140;SDS011;50436;50.618;7.932;2023-11-21T13:18:20;0.20;;;0.20;;
64140;SDS011;50436;50.618;7.932;2023-11-21T13:21:07;0.20;;;0.20;;
64140;SDS011;50436;50.618;7.932;2023-11-21T13:23:59;0.20;;;0.20;;
64140;SDS011;50436;50.618;7.932;2023-11-21T13:26:44;0.10;;;0.10;;
64140;SDS011;50436;50.618;7.932;2023-11-21T13:29:32;0.10;;;0.10;;
64140;SDS011;50436;50.618;7.932;2023-11-21T13:32:20;0.20;;;0.20;;
64140;SDS011;50436;50.618;7.932;2023-11-21T13:35:07;0.20;;;0.20;;
64140;SDS011;50436;50.618;7.932;2023-11-21T13:38:07;0.10;;;0.10;;
64140;SDS011;50436;50.618;7.932;2023-11-21T13:40:53;0.10;;;0.10;;
64140;SDS011;50436;50.618;7.932;2023-11-21T13:43:41;0.15;;;0.15;;
64140;SDS011;50436;50.618;7.932;2023-11-21T13:46:31;0.10;;;0.10;;
64140;SDS011;50436;50.618;7.932;2023-11-21T13:49:22;0.17;;;0.17;;
64140;SDS011;50436;50.618;7.932;2023-11-21T13:52:08;0.10;;;0.10;;
64140;SDS011;50436;50.618;7.932;2023-11-21T13:54:56;0.10;;;0.10;;
64140;SDS011;50436;50.618;7.932;2023-11-21T13:57:42;0.10;;;0.10;;
64140;SDS011;50436;50.618;7.932;2023-11-21T14:00:34;0.20;;;0.20;;
64140;SDS011;50436;50.618;7.932;2023-11-21T14:03:41;0.10;;;0.10;;
64140;SDS011;50436;50.618;7.932;2023-11-21T14:06:37;0.20;;;0.20;;
64140;SDS011;50436;50.618;7.932;2023-11-21T14:09:33;0.10;;;0.10;;
64140;SDS011;50436;50.618;7.932;2023-11-21T14:12:21;0.15;;;0.15;;
64140;SDS011;50436;50.618;7.932;2023-11-21T14:15:07;0.10;;;0.10;;
64140;SDS011;50436;50.618;7.932;2023-11-21T14:17:54;0.20;;;0.20;;
64140;SDS011;50436;50.618;7.932;2023-11-21T14:20:40;0.20;;;0.20;;
64140;SDS011;50436;50.618;7.932;2023-11-21T14:23:27;0.10;;;0.10;;
64140;SDS011;50436;50.618;7.932;2023-11-21T14:26:14;0.20;;;0.20;;
64140;SDS011;50436;50.618;7.932;2023-11-21T14:29:00;0.10;;;0.10;;
64140;SDS011;50436;50.618;7.932;2023-11-21T14:31:46;0.20;;;0.20;;
64140;SDS011;50436;50.618;7.932;2023-11-21T14:34:32;0.17;;;0.17;;
64140;SDS011;50436;50.618;7.932;2023-11-21T14:37:18;0.20;;;0.20;;
64140;SDS011;50436;50.618;7.932;2023-11-21T14:40:05;0.20;;;0.20;;
64140;SDS011;50436;50.618;7.932;2023-11-21T14:42:53;0.10;;;0.10;;
64140;SDS011;50436;50.618;7.932;2023-11-21T14:45:42;0.20;;;0.20;;
64140;SDS011;50436;50.618;7.932;2023-11-21T14:48:28;0.20;;;0.20;;
64140;SDS011;50436;50.618;7.932;2023-11-21T14:51:32;0.10;;;0.10;;
64140;SDS011;50436;50.618;7.932;2023-11-21T14:54:31;0.13;;;0.13;;
64140;SDS011;50436;50.618;7.932;2023-11-21T14:57:25;0.17;;;0.17;;
64140;SDS011;50436;50.618;7.932;2023-11-21T15:00:12;0.20;;;0.20;;
64140;SDS011;50436;50.618;7.932;2023-11-21T15:03:16;0.10;;;0.10;;
64140;SDS011;50436;50.618;7.932;2023-11-21T15:06:17;0.20;;;0.20;;
64140;SDS011;50436;50.618;7.932;2023-11-21T15:09:14;0.20;;;0.20;;
64140;SDS011;50436;50.618;7.932;2023-11-21T15:12:00;0.10;;;0.10;;
64140;SDS011;50436;50.618;7.932;2023-11-21T15:14:59;0.20;;;0.20;;
64140;SDS011;50436;50.618;7.932;2023-11-21T15:17:45;0.20;;;0.20;;
64140;SDS011;50436;50.618;7.932;2023-11-21T15:20:31;0.10;;;0.10;;
64140;SDS011;50436;50.618;7.932;2023-11-21T15:23:16;0.13;;;0.13;;
64140;SDS011;50436;50.618;7.932;2023-11-21T15:26:04;0.20;;;0.20;;
64140;SDS011;50436;50.618;7.932;2023-11-21T15:28:50;0.20;;;0.20;;
64140;SDS011;50436;50.618;7.932;2023-11-21T15:31:36;0.20;;;0.20;;
64140;SDS011;50436;50.618;7.932;2023-11-21T15:34:23;0.20;;;0.20;;
64140;SDS011;50436;50.618;7.932;2023-11-21T15:37:11;0.20;;;0.20;;
64140;SDS011;50436;50.618;7.932;2023-11-21T15:39:57;0.20;;;0.20;;
64140;SDS011;50436;50.618;7.932;2023-11-21T15:42:43;0.10;;;0.10;;
64140;SDS011;50436;50.618;7.932;2023-11-21T15:45:30;0.20;;;0.20;;
64140;SDS011;50436;50.618;7.932;2023-11-21T15:48:16;0.10;;;0.10;;
64140;SDS011;50436;50.618;7.932;2023-11-21T15:51:02;0.17;;;0.17;;
64140;SDS011;50436;50.618;7.932;2023-11-21T15:53:48;0.10;;;0.10;;
64140;SDS011;50436;50.618;7.932;2023-11-21T15:56:33;0.20;;;0.20;;
64140;SDS011;50436;50.618;7.932;2023-11-21T15:59:20;0.20;;;0.20;;
64140;SDS011;50436;50.618;7.932;2023-11-21T16:02:07;0.20;;;0.20;;
64140;SDS011;50436;50.618;7.932;2023-11-21T16:04:55;0.20;;;0.20;;
64140;SDS011;50436;50.618;7.932;2023-11-21T16:07:41;0.20;;;0.20;;
64140;SDS011;50436;50.618;7.932;2023-11-21T16:10:27;0.17;;;0.17;;
64140;SDS011;50436;50.618;7.932;2023-11-21T16:13:13;0.20;;;0.20;;
64140;SDS011;50436;50.618;7.932;2023-11-21T16:15:59;0.13;;;0.13;;
64140;SDS011;50436;50.618;7.932;2023-11-21T16:18:45;0.15;;;0.15;;
64140;SDS011;50436;50.618;7.932;2023-11-21T16:21:31;0.20;;;0.20;;
64140;SDS011;50436;50.618;7.932;2023-11-21T16:24:16;0.20;;;0.20;;
64140;SDS011;50436;50.618;7.932;2023-11-21T16:27:03;0.10;;;0.10;;
64140;SDS011;50436;50.618;7.932;2023-11-21T16:29:49;0.10;;;0.10;;
64140;SDS011;50436;50.618;7.932;2023-11-21T16:32:35;0.15;;;0.15;;
64140;SDS011;50436;50.618;7.932;2023-11-21T16:35:22;0.10;;;0.10;;
64140;SDS011;50436;50.618;7.932;2023-11-21T16:38:07;0.20;;;0.20;;
64140;SDS011;50436;50.618;7.932;2023-11-21T16:40:53;0.17;;;0.17;;
64140;SDS011;50436;50.618;7.932;2023-11-21T16:43:39;0.20;;;0.20;;
64140;SDS011;50436;50.618;7.932;2023-11-21T16:46:24;0.20;;;0.20;;
64140;SDS011;50436;50.618;7.932;2023-11-21T16:49:10;0.20;;;0.20;;
64140;SDS011;50436;50.618;7.932;2023-11-21T16:51:56;0.20;;;0.20;;
64140;SDS011;50436;50.618;7.932;2023-11-21T16:54:41;0.20;;;0.20;;
64140;SDS011;50436;50.618;7.932;2023-11-21T16:57:27;0.13;;;0.13;;